createdAt,value
2022-11-20T00:01:27.017Z,9.10
2022-11-20T00:03:55.449Z,8.60
2022-11-20T00:06:23.103Z,9.35
2022-11-20T00:08:50.092Z,9.13
2022-11-20T00:11:19.994Z,9.30
2022-11-20T00:13:48.261Z,9.73
2022-11-20T00:16:16.427Z,9.05
2022-11-20T00:18:43.393Z,8.40
2022-11-20T00:21:22.265Z,9.82
2022-11-20T00:23:49.631Z,8.80
2022-11-20T00:26:18.839Z,9.13
2022-11-20T00:28:51.017Z,8.50
2022-11-20T00:31:18.121Z,9.52
2022-11-20T00:33:45.739Z,10.45
2022-11-20T00:36:18.064Z,9.00
2022-11-20T00:38:45.317Z,8.85
2022-11-20T00:41:16.587Z,9.52
2022-11-20T00:43:43.700Z,9.38
2022-11-20T00:46:14.616Z,9.00
2022-11-20T00:48:41.137Z,9.30
2022-11-20T00:51:07.773Z,8.85
2022-11-20T00:53:34.592Z,8.57
2022-11-20T00:56:03.580Z,9.57
2022-11-20T00:58:35.632Z,8.98
2022-11-20T01:01:07.509Z,10.60
2022-11-20T01:03:42.849Z,9.05
2022-11-20T01:06:26.222Z,9.85
2022-11-20T01:09:12.870Z,9.52
2022-11-20T01:12:07.331Z,9.25
2022-11-20T01:15:00.781Z,9.55
2022-11-20T01:17:41.049Z,8.93
2022-11-20T01:20:14.117Z,9.18
2022-11-20T01:22:53.339Z,9.77
2022-11-20T01:25:32.876Z,9.05
2022-11-20T01:28:04.767Z,9.23
2022-11-20T01:30:56.022Z,9.10
2022-11-20T01:33:42.240Z,9.15
2022-11-20T01:36:35.459Z,9.30
2022-11-20T01:39:33.320Z,9.35
2022-11-20T01:42:21.058Z,9.77
2022-11-20T01:45:00.493Z,10.05
2022-11-20T01:48:13.348Z,9.25
2022-11-20T01:53:41.579Z,9.80
2022-11-20T01:56:13.031Z,9.32
2022-11-20T01:58:45.773Z,9.85
2022-11-20T02:01:13.508Z,9.13
2022-11-20T02:03:40.466Z,9.70
2022-11-20T02:06:20.405Z,9.95
2022-11-20T02:08:46.856Z,9.02
2022-11-20T02:11:13.790Z,8.95
2022-11-20T02:13:46.517Z,9.55
2022-11-20T02:16:17.506Z,10.00
2022-11-20T02:18:45.813Z,9.40
2022-11-20T02:21:25.336Z,10.02
2022-11-20T02:24:08.901Z,9.00
2022-11-20T02:26:42.741Z,9.75
2022-11-20T02:29:10.855Z,9.70
2022-11-20T02:31:53.313Z,8.75
2022-11-20T02:34:19.783Z,8.50
2022-11-20T02:36:48.908Z,9.90
2022-11-20T02:39:31.887Z,9.98
2022-11-20T02:41:58.413Z,10.10
2022-11-20T02:44:24.884Z,9.52
2022-11-20T02:46:51.403Z,10.13
2022-11-20T02:49:18.143Z,10.63
2022-11-20T02:51:51.141Z,9.30
2022-11-20T02:54:55.910Z,9.38
2022-11-20T03:00:19.911Z,8.45
2022-11-20T03:02:47.175Z,10.18
2022-11-20T03:05:13.668Z,9.02
2022-11-20T03:07:40.180Z,9.70
2022-11-20T03:10:22.033Z,9.77
2022-11-20T03:12:48.614Z,9.32
2022-11-20T03:15:15.047Z,9.57
2022-11-20T03:17:41.592Z,9.70
2022-11-20T03:20:09.013Z,10.27
2022-11-20T03:22:35.507Z,10.20
2022-11-20T03:25:01.963Z,9.38
2022-11-20T03:27:32.257Z,9.77
2022-11-20T03:29:59.836Z,9.77
2022-11-20T03:32:26.285Z,8.38
2022-11-20T03:34:52.772Z,9.48
2022-11-20T03:37:19.210Z,9.70
2022-11-20T03:39:45.683Z,9.73
2022-11-20T03:42:32.131Z,9.32
2022-11-20T03:44:58.593Z,9.48
2022-11-20T03:47:28.956Z,9.23
2022-11-20T03:50:02.647Z,9.68
2022-11-20T03:52:29.153Z,9.60
2022-11-20T03:54:55.597Z,9.52
2022-11-20T03:57:22.030Z,9.35
2022-11-20T03:59:48.596Z,10.50
2022-11-20T04:02:15.054Z,9.82
2022-11-20T04:04:41.606Z,9.52
2022-11-20T04:07:14.946Z,10.23
2022-11-20T04:09:41.463Z,9.73
2022-11-20T04:12:08.021Z,10.40
2022-11-20T04:14:34.765Z,9.93
2022-11-20T04:17:01.421Z,9.00
2022-11-20T04:19:27.949Z,10.90
2022-11-20T04:21:56.354Z,9.75
2022-11-20T04:24:25.624Z,10.48
2022-11-20T04:26:52.106Z,10.77
2022-11-20T04:29:18.688Z,11.57
2022-11-20T04:31:55.539Z,9.93
2022-11-20T04:34:21.998Z,10.93
2022-11-20T04:36:48.508Z,10.55
2022-11-20T04:39:16.354Z,11.60
2022-11-20T04:41:43.029Z,11.60
2022-11-20T04:44:09.519Z,11.07
2022-11-20T04:46:42.250Z,10.73
2022-11-20T04:49:09.303Z,10.70
2022-11-20T04:51:39.038Z,10.38
2022-11-20T04:54:06.240Z,9.68
2022-11-20T04:56:32.905Z,10.45
2022-11-20T04:59:03.483Z,11.40
2022-11-20T05:01:40.973Z,12.10
2022-11-20T05:04:15.505Z,10.73
2022-11-20T05:06:42.134Z,12.82
2022-11-20T05:09:08.778Z,11.38
2022-11-20T05:11:35.241Z,11.05
2022-11-20T05:14:01.731Z,11.55
2022-11-20T05:16:28.569Z,10.90
2022-11-20T05:18:55.759Z,11.13
2022-11-20T05:21:22.597Z,11.70
2022-11-20T05:23:49.895Z,11.98
2022-11-20T05:26:22.399Z,12.00
2022-11-20T05:28:49.318Z,12.23
2022-11-20T05:31:25.018Z,11.55
2022-11-20T05:33:53.917Z,12.10
2022-11-20T05:36:24.234Z,12.18
2022-11-20T05:38:51.538Z,11.60
2022-11-20T05:41:21.238Z,12.85
2022-11-20T05:43:49.584Z,13.32
2022-11-20T05:46:22.329Z,11.23
2022-11-20T05:48:51.548Z,11.43
2022-11-20T05:51:19.820Z,12.27
2022-11-20T05:53:48.543Z,11.80
2022-11-20T05:56:18.639Z,11.45
2022-11-20T05:58:45.813Z,12.60
2022-11-20T06:01:16.106Z,12.40
2022-11-20T06:03:52.200Z,11.90
2022-11-20T06:06:19.610Z,11.25
2022-11-20T06:08:46.525Z,10.95
2022-11-20T06:11:14.493Z,11.23
2022-11-20T06:13:42.488Z,10.95
2022-11-20T06:16:10.608Z,11.02
2022-11-20T06:18:37.873Z,11.95
2022-11-20T06:21:10.468Z,11.85
2022-11-20T06:23:40.358Z,13.30
2022-11-20T06:26:09.345Z,12.90
2022-11-20T06:31:02.656Z,10.38
2022-11-20T06:33:29.495Z,11.98
2022-11-20T06:36:03.573Z,14.88
2022-11-20T06:38:33.807Z,11.20
2022-11-20T06:41:00.445Z,11.10
2022-11-20T06:43:32.446Z,11.82
2022-11-20T06:46:00.042Z,11.32
2022-11-20T06:48:29.513Z,11.32
2022-11-20T06:50:56.312Z,12.07
2022-11-20T06:53:23.931Z,10.70
2022-11-20T06:55:51.302Z,10.95
2022-11-20T06:58:18.933Z,11.15
2022-11-20T07:00:45.430Z,11.10
2022-11-20T07:03:13.141Z,10.43
2022-11-20T07:05:40.150Z,11.48
2022-11-20T07:08:06.906Z,11.98
2022-11-20T07:10:34.104Z,11.75
2022-11-20T07:13:00.751Z,11.13
2022-11-20T07:15:27.532Z,12.13
2022-11-20T07:17:54.049Z,10.73
2022-11-20T07:20:20.553Z,11.07
2022-11-20T07:22:55.784Z,11.88
2022-11-20T07:25:23.321Z,13.35
2022-11-20T07:27:49.765Z,15.82
2022-11-20T07:30:17.449Z,14.90
2022-11-20T07:32:47.573Z,13.95
2022-11-20T07:35:14.112Z,12.30
2022-11-20T07:37:40.519Z,12.23
2022-11-20T07:40:07.377Z,19.40
2022-11-20T07:42:33.782Z,11.15
2022-11-20T07:45:00.167Z,11.73
2022-11-20T07:47:26.720Z,10.38
2022-11-20T07:49:53.097Z,10.50
2022-11-20T07:52:19.529Z,20.30
2022-11-20T07:54:45.949Z,14.85
2022-11-20T07:57:12.383Z,11.23
2022-11-20T07:59:39.830Z,10.50
2022-11-20T08:02:06.468Z,11.95
2022-11-20T08:04:34.184Z,10.88
2022-11-20T08:07:00.908Z,11.85
2022-11-20T08:09:27.426Z,10.48
2022-11-20T08:12:12.574Z,11.77
2022-11-20T08:14:39.058Z,11.43
2022-11-20T08:17:05.535Z,11.18
2022-11-20T08:19:32.006Z,11.30
2022-11-20T08:21:58.535Z,11.45
2022-11-20T08:24:25.790Z,8.75
2022-11-20T08:26:52.248Z,11.60
2022-11-20T08:29:19.498Z,9.68
2022-11-20T08:31:46.235Z,9.38
2022-11-20T08:34:17.607Z,9.55
2022-11-20T08:36:45.654Z,9.48
2022-11-20T08:39:15.119Z,9.10
2022-11-20T08:41:41.504Z,8.65
2022-11-20T08:44:09.045Z,9.48
2022-11-20T08:46:38.713Z,9.73
2022-11-20T08:49:06.943Z,9.20
2022-11-20T08:51:34.102Z,8.13
2022-11-20T08:54:00.625Z,8.63
2022-11-20T08:56:27.078Z,7.18
2022-11-20T09:01:40.429Z,8.13
2022-11-20T09:04:06.897Z,9.30
2022-11-20T09:06:33.414Z,10.02
2022-11-20T09:09:06.157Z,8.93
2022-11-20T09:11:33.676Z,9.15
2022-11-20T09:14:01.021Z,9.60
2022-11-20T09:16:27.442Z,8.98
2022-11-20T09:19:02.199Z,9.25
2022-11-20T09:21:39.845Z,9.15
2022-11-20T09:24:06.512Z,8.60
2022-11-20T09:26:32.926Z,9.23
2022-11-20T09:28:59.363Z,9.32
2022-11-20T09:31:27.159Z,8.30
2022-11-20T09:33:53.575Z,10.30
2022-11-20T09:36:20.045Z,10.25
2022-11-20T09:38:47.105Z,10.13
2022-11-20T09:41:42.560Z,9.85
2022-11-20T09:44:09.122Z,8.95
2022-11-20T09:46:50.790Z,8.70
2022-11-20T09:49:32.808Z,9.52
2022-11-20T09:52:18.591Z,9.45
2022-11-20T09:54:45.427Z,7.75
2022-11-20T09:57:22.726Z,8.68
2022-11-20T09:59:58.109Z,8.63
2022-11-20T10:05:19.607Z,11.45
2022-11-20T10:08:07.445Z,12.43
2022-11-20T10:10:43.976Z,11.13
2022-11-20T10:13:45.039Z,8.13
2022-11-20T10:16:20.521Z,8.70
2022-11-20T10:21:25.520Z,10.13
2022-11-20T10:24:02.114Z,9.82
2022-11-20T10:27:05.981Z,9.80
2022-11-20T10:29:37.558Z,8.82
2022-11-20T10:32:12.518Z,10.43
2022-11-20T10:34:55.926Z,10.57
2022-11-20T10:37:54.539Z,10.85
2022-11-20T10:40:33.323Z,11.00
2022-11-20T10:43:10.868Z,9.50
2022-11-20T10:45:45.226Z,9.68
2022-11-20T10:48:24.345Z,10.10
2022-11-20T10:51:12.406Z,9.30
2022-11-20T10:54:01.733Z,9.07
2022-11-20T10:56:49.941Z,9.75
2022-11-20T10:59:38.530Z,10.30
2022-11-20T11:02:25.810Z,12.73
2022-11-20T11:04:55.810Z,11.38
2022-11-20T11:07:41.599Z,12.63
2022-11-20T11:10:18.738Z,10.88
2022-11-20T11:12:48.962Z,12.38
2022-11-20T11:15:27.159Z,14.48
2022-11-20T11:17:54.476Z,7.78
2022-11-20T11:20:26.931Z,7.55
2022-11-20T11:22:59.242Z,6.43
2022-11-20T11:25:31.840Z,8.65
2022-11-20T11:28:01.475Z,7.03
2022-11-20T11:30:31.240Z,11.35
2022-11-20T11:33:10.950Z,10.07
2022-11-20T11:35:49.921Z,12.80
2022-11-20T11:38:24.797Z,10.85
2022-11-20T11:40:54.989Z,9.75
2022-11-20T11:43:43.819Z,6.03
2022-11-20T11:46:26.690Z,4.65
2022-11-20T11:49:01.728Z,4.40
2022-11-20T11:51:34.255Z,5.78
2022-11-20T11:54:03.236Z,4.00
2022-11-20T11:56:31.153Z,4.35
2022-11-20T11:59:01.812Z,3.80
2022-11-20T12:01:45.675Z,3.72
2022-11-20T12:04:35.182Z,3.80
2022-11-20T12:07:38.924Z,2.78
2022-11-20T12:09:59.461Z,5.22
2022-11-20T12:12:31.644Z,5.43
2022-11-20T12:14:59.535Z,4.75
2022-11-20T12:17:26.014Z,6.03
2022-11-20T12:19:52.474Z,8.52
2022-11-20T12:22:40.745Z,6.43
2022-11-20T12:25:27.789Z,10.05
2022-11-20T12:27:57.377Z,9.93
2022-11-20T12:30:25.640Z,8.60
2022-11-20T12:33:15.379Z,9.23
2022-11-20T12:36:02.985Z,12.38
2022-11-20T12:39:07.645Z,7.70
2022-11-20T12:42:07.349Z,13.60
2022-11-20T12:45:05.182Z,6.30
2022-11-20T12:47:56.472Z,5.97
2022-11-20T12:51:13.330Z,9.02
2022-11-20T12:53:54.254Z,9.85
2022-11-20T12:56:43.181Z,5.22
2022-11-20T12:59:30.922Z,5.07
2022-11-20T13:02:12.579Z,4.97
2022-11-20T13:05:08.492Z,7.60
2022-11-20T13:07:36.373Z,9.45
2022-11-20T13:10:08.778Z,8.60
2022-11-20T13:12:45.432Z,8.93
2022-11-20T13:15:42.609Z,5.63
2022-11-20T13:18:28.509Z,6.40
2022-11-20T13:20:55.026Z,13.70
2022-11-20T13:23:29.039Z,9.23
2022-11-20T13:26:14.664Z,11.20
2022-11-20T13:28:41.832Z,9.98
2022-11-20T13:31:31.294Z,8.18
2022-11-20T13:34:00.186Z,9.93
2022-11-20T13:38:56.717Z,6.80
2022-11-20T13:41:38.621Z,8.77
2022-11-20T13:44:11.598Z,8.25
2022-11-20T13:46:45.479Z,6.82
2022-11-20T13:49:38.029Z,7.22
2022-11-20T13:52:44.292Z,6.00
2022-11-20T13:56:03.710Z,5.88
2022-11-20T13:59:13.471Z,7.40
2022-11-20T14:01:44.874Z,7.03
2022-11-20T14:04:19.235Z,7.78
2022-11-20T14:06:47.950Z,7.03
2022-11-20T14:09:27.610Z,7.30
2022-11-20T14:12:19.067Z,5.90
2022-11-20T14:14:52.141Z,6.15
2022-11-20T14:17:23.302Z,7.63
2022-11-20T14:19:52.317Z,6.68
2022-11-20T14:22:24.448Z,5.78
2022-11-20T14:25:04.794Z,6.90
2022-11-20T14:27:36.008Z,5.55
2022-11-20T14:30:03.807Z,7.43
2022-11-20T14:32:32.137Z,12.65
2022-11-20T14:35:08.532Z,9.27
2022-11-20T14:37:39.413Z,7.45
2022-11-20T14:40:28.497Z,11.40
2022-11-20T14:42:55.924Z,9.35
2022-11-20T14:45:23.554Z,7.47
2022-11-20T14:47:52.355Z,6.90
2022-11-20T14:50:28.505Z,6.90
2022-11-20T14:53:00.388Z,6.68
2022-11-20T14:55:38.814Z,6.32
2022-11-20T14:58:23.300Z,6.55
2022-11-20T15:00:58.689Z,6.85
2022-11-20T15:03:41.495Z,7.35
2022-11-20T15:06:11.551Z,6.80
2022-11-20T15:08:38.180Z,6.22
2022-11-20T15:11:20.668Z,7.20
2022-11-20T15:13:47.263Z,6.93
2022-11-20T15:16:20.415Z,6.95
2022-11-20T15:18:47.837Z,6.75
2022-11-20T15:21:16.990Z,9.00
2022-11-20T15:23:43.888Z,9.98
2022-11-20T15:26:18.461Z,11.48
2022-11-20T15:28:48.911Z,8.25
2022-11-20T15:31:19.106Z,6.55
2022-11-20T15:33:45.937Z,8.23
2022-11-20T15:36:12.448Z,9.30
2022-11-20T15:38:39.416Z,10.13
2022-11-20T15:41:06.249Z,7.00
2022-11-20T15:43:32.798Z,9.38
2022-11-20T15:46:06.066Z,10.85
2022-11-20T15:49:00.590Z,12.63
2022-11-20T15:51:47.939Z,12.18
2022-11-20T15:54:23.459Z,9.45
2022-11-20T15:56:53.218Z,8.90
2022-11-20T15:59:19.960Z,10.65
2022-11-20T16:01:46.552Z,10.40
2022-11-20T16:04:15.115Z,11.20
2022-11-20T16:06:42.265Z,10.77
2022-11-20T16:09:09.009Z,12.27
2022-11-20T16:11:38.475Z,8.75
2022-11-20T16:14:24.877Z,8.18
2022-11-20T16:16:52.109Z,9.05
2022-11-20T16:19:19.132Z,10.27
2022-11-20T16:21:45.694Z,8.70
2022-11-20T16:24:13.942Z,9.30
2022-11-20T16:26:41.571Z,9.07
2022-11-20T16:29:08.195Z,9.48
2022-11-20T16:31:35.057Z,8.63
2022-11-20T16:34:08.606Z,9.38
2022-11-20T16:36:40.741Z,9.68
2022-11-20T16:39:07.121Z,10.30
2022-11-20T16:41:37.460Z,11.95
2022-11-20T16:44:08.502Z,9.57
2022-11-20T16:46:40.622Z,9.40
2022-11-20T16:49:11.823Z,10.38
2022-11-20T16:51:38.310Z,8.48
2022-11-20T16:54:09.110Z,13.23
2022-11-20T16:56:35.759Z,11.48
2022-11-20T16:59:03.247Z,9.80
2022-11-20T17:01:30.661Z,10.23
2022-11-20T17:03:59.823Z,11.25
2022-11-20T17:06:28.791Z,11.48
2022-11-20T17:08:57.885Z,12.50
2022-11-20T17:11:25.098Z,13.38
2022-11-20T17:13:52.112Z,13.70
2022-11-20T17:16:23.238Z,10.45
2022-11-20T17:18:50.633Z,9.23
2022-11-20T17:21:19.021Z,11.07
2022-11-20T17:23:47.363Z,11.55
2022-11-20T17:26:19.749Z,9.70
2022-11-20T17:28:47.889Z,9.65
2022-11-20T17:31:16.721Z,12.80
2022-11-20T17:33:45.230Z,12.55
2022-11-20T17:36:16.649Z,12.77
2022-11-20T17:38:43.474Z,9.68
2022-11-20T17:41:17.790Z,9.70
2022-11-20T17:43:44.650Z,8.95
2022-11-20T17:46:19.400Z,13.70
2022-11-20T17:48:49.486Z,11.30
2022-11-20T17:51:18.888Z,10.40
2022-11-20T17:53:53.289Z,10.60
2022-11-20T17:56:39.082Z,10.88
2022-11-20T17:59:07.011Z,10.63
2022-11-20T18:01:34.172Z,9.93
2022-11-20T18:04:01.078Z,9.55
2022-11-20T18:06:29.082Z,8.63
2022-11-20T18:08:57.547Z,8.90
2022-11-20T18:11:27.310Z,9.65
2022-11-20T18:14:16.599Z,9.15
2022-11-20T18:16:45.937Z,10.93
2022-11-20T18:19:21.900Z,9.93
2022-11-20T18:21:48.305Z,9.40
2022-11-20T18:24:14.890Z,10.27
2022-11-20T18:26:44.463Z,12.02
2022-11-20T18:29:11.928Z,10.35
2022-11-20T18:31:38.650Z,12.98
2022-11-20T18:34:06.274Z,13.43
2022-11-20T18:36:32.900Z,13.63
2022-11-20T18:39:01.628Z,14.35
2022-11-20T18:41:49.052Z,10.45
2022-11-20T18:44:42.519Z,6.88
2022-11-20T18:47:14.839Z,6.25
2022-11-20T18:49:50.658Z,7.20
2022-11-20T18:52:18.481Z,7.00
2022-11-20T18:54:44.915Z,6.13
2022-11-20T18:57:14.494Z,7.13
2022-11-20T18:59:42.763Z,8.48
2022-11-20T19:02:18.097Z,9.45
2022-11-20T19:07:12.242Z,7.38
2022-11-20T19:09:43.311Z,12.00
2022-11-20T19:12:11.468Z,6.40
2022-11-20T19:14:37.945Z,6.10
2022-11-20T19:17:06.815Z,6.20
2022-11-20T19:19:34.524Z,6.18
2022-11-20T19:22:00.971Z,5.85
2022-11-20T19:24:28.342Z,5.72
2022-11-20T19:26:56.084Z,5.35
2022-11-20T19:29:24.781Z,5.80
2022-11-20T19:34:19.353Z,5.43
2022-11-20T19:36:45.890Z,4.97
2022-11-20T19:39:12.853Z,4.63
2022-11-20T19:41:40.911Z,4.90
2022-11-20T19:44:14.025Z,4.72
2022-11-20T19:46:43.398Z,5.00
2022-11-20T19:49:12.585Z,4.78
2022-11-20T19:51:44.634Z,5.30
2022-11-20T19:54:11.063Z,4.43
2022-11-20T19:56:37.464Z,4.40
2022-11-20T19:59:06.985Z,4.32
2022-11-20T20:01:35.281Z,4.97
2022-11-20T20:04:02.960Z,4.75
2022-11-20T20:06:30.012Z,4.30
2022-11-20T20:09:02.434Z,4.88
2022-11-20T20:11:31.322Z,4.82
2022-11-20T20:16:28.902Z,3.95
2022-11-20T20:19:00.829Z,5.10
2022-11-20T20:21:27.542Z,4.65
2022-11-20T20:23:55.697Z,5.60
2022-11-20T20:26:24.163Z,4.70
2022-11-20T20:28:51.317Z,5.72
2022-11-20T20:31:20.028Z,4.80
2022-11-20T20:33:46.757Z,5.00
2022-11-20T20:36:17.506Z,5.18
2022-11-20T20:38:45.993Z,4.63
2022-11-20T20:41:19.517Z,4.47
2022-11-20T20:44:11.885Z,5.25
2022-11-20T20:46:39.004Z,4.75
2022-11-20T20:49:05.442Z,4.28
2022-11-20T20:51:31.875Z,4.70
2022-11-20T20:53:58.343Z,4.50
2022-11-20T20:56:25.135Z,4.63
2022-11-20T20:58:51.499Z,4.40
2022-11-20T21:01:19.353Z,4.57
2022-11-20T21:03:45.919Z,4.63
2022-11-20T21:06:12.786Z,4.40
2022-11-20T21:08:40.915Z,4.20
2022-11-20T21:13:35.939Z,3.97
2022-11-20T21:16:03.550Z,3.60
2022-11-20T21:18:32.866Z,4.43
2022-11-20T21:21:18.002Z,3.70
2022-11-20T21:23:47.755Z,3.92
2022-11-20T21:26:15.855Z,4.10
2022-11-20T21:28:42.326Z,4.32
2022-11-20T21:31:24.786Z,4.13
2022-11-20T21:33:52.935Z,3.80
2022-11-20T21:36:24.219Z,4.10
2022-11-20T21:38:52.230Z,4.20
2022-11-20T21:41:18.766Z,3.90
2022-11-20T21:43:45.715Z,3.88
2022-11-20T21:46:15.636Z,3.67
2022-11-20T21:48:43.636Z,4.13
2022-11-20T21:51:15.569Z,3.28
2022-11-20T21:53:42.865Z,2.90
2022-11-20T21:56:10.982Z,2.75
2022-11-20T21:58:39.184Z,2.40
2022-11-20T22:01:24.035Z,2.38
2022-11-20T22:03:52.811Z,2.50
2022-11-20T22:06:20.784Z,2.42
2022-11-20T22:08:48.676Z,2.15
2022-11-20T22:11:18.733Z,2.42
2022-11-20T22:14:03.733Z,2.00
2022-11-20T22:16:30.654Z,1.92
2022-11-20T22:18:58.605Z,2.13
2022-11-20T22:21:27.205Z,2.63
2022-11-20T22:23:55.066Z,2.22
2022-11-20T22:26:24.130Z,2.00
2022-11-20T22:28:52.789Z,1.98
2022-11-20T22:31:20.841Z,2.05
2022-11-20T22:33:47.293Z,2.00
2022-11-20T22:36:16.402Z,1.80
2022-11-20T22:38:43.412Z,1.98
2022-11-20T22:41:18.012Z,1.80
2022-11-20T22:43:45.398Z,1.73
2022-11-20T22:46:13.243Z,1.88
2022-11-20T22:48:53.719Z,1.63
2022-11-20T22:51:23.150Z,1.60
2022-11-20T22:53:50.304Z,1.42
2022-11-20T22:56:17.305Z,1.52
2022-11-20T22:58:47.731Z,1.48
2022-11-20T23:01:15.336Z,1.48
2022-11-20T23:03:44.524Z,1.40
2022-11-20T23:06:12.338Z,1.42
2022-11-20T23:08:40.300Z,1.58
2022-11-20T23:11:12.214Z,1.38
2022-11-20T23:13:39.449Z,1.33
2022-11-20T23:16:14.839Z,1.20
2022-11-20T23:18:42.878Z,1.30
2022-11-20T23:21:15.489Z,1.40
2022-11-20T23:23:42.837Z,1.30
2022-11-20T23:26:14.455Z,1.50
2022-11-20T23:28:41.950Z,1.27
2022-11-20T23:31:09.646Z,1.30
2022-11-20T23:33:37.833Z,1.15
2022-11-20T23:36:05.241Z,1.35
2022-11-20T23:38:31.756Z,1.38
2022-11-20T23:40:58.248Z,1.40
2022-11-20T23:43:25.156Z,1.40
2022-11-20T23:45:56.672Z,1.45
2022-11-20T23:48:25.734Z,1.10
2022-11-20T23:50:52.243Z,1.52
2022-11-20T23:53:19.325Z,1.67
2022-11-20T23:55:47.533Z,1.50
2022-11-20T23:58:14.446Z,1.50
